MMVA/VSA METAR and TAF weather

Enter ICAO airport designator
Station Type Date Time Source
MMVA METAR 2020/07/12 17:40 UTC NOAA

MMVA 121740Z 00000KT 5SM SCT040 31/24 A2997 RMK 8/100


Station Type Date Time Source
MMVA Decoded METAR 2020/07/12 17:40 UTC NOAA

Villahermosa , Mexico (MMVA) 18-00N 092-49W
Jul 12, 2020 - 01:40 PM EDT / 2020.07.12 1740 UTC
Wind: Calm:0
Visibility: 5 mile(s):0
Sky conditions: partly cloudy
Temperature: 87 F (31 C)
Heat index: 95.7 F (35.4 C):1
Dew Point: 75 F (24 C)
Relative Humidity: 66%
Pressure (altimeter): 29.97 in. Hg (1014 hPa)
ob: MMVA 121740Z 00000KT 5SM SCT040 31/24 A2997 RMK 8/100
cycle: 17

Station Type Date Time Source
MMVA TAF 2020/07/12 18:28 UTC NOAA

TAF MMVA 121726Z 1218/1318 00000KT 5SM HZ SCT040
FM122100 06012KT P6SM BKN020
TEMPO 1223/1302 1SM TSRA OVC010CB
FM130600 09010KT P6SM SCT015
FM131200 00000KT 4SM HZ SCT025

Example: see airport list